Aurora, Minnesota
Current Conditions -  °F | °C
As of 12:11 PM on Thursday 23 Oct 2014 (Local Time) from KEVM Reporting Station
Overcast Overcast  
Wind Chill: 52°   Ceiling: 500
Heat Index: 52°   Visibility: 10mi
Dew Point: 50°   Wind: 6mph
Humidity: 94%   Direction: 210°SSW
Pressure: 29.96"   Gusts: NA
Location:  47.53°N, 92.24°W
Report Text: KEVM 231711Z AUTO 21005KT 10SM OVC005 11/10 A2996 RMK AO2
Loading
Personal Weather Stations






























Interactive Weather Map
Tropical Storm Tracking
New forecast layout! Learn more

10-Day Weather Forecast

Advertisements
Track Severe Weather on mobile